createdAt,value
2019-03-26T00:00:44.403Z,8.70
2019-03-26T00:04:45.375Z,9.00
2019-03-26T00:08:46.373Z,8.90
2019-03-26T00:12:47.407Z,9.00
2019-03-26T00:16:48.499Z,9.10
2019-03-26T00:20:49.404Z,8.90
2019-03-26T00:24:50.297Z,8.40
2019-03-26T00:28:51.146Z,8.20
2019-03-26T00:32:52.034Z,8.00
2019-03-26T00:36:53.133Z,8.20
2019-03-26T00:40:54.102Z,8.20
2019-03-26T00:44:55.000Z,8.30
2019-03-26T00:48:55.935Z,8.60
2019-03-26T00:52:56.906Z,8.70
2019-03-26T00:56:57.806Z,8.70
2019-03-26T01:00:58.724Z,8.30
2019-03-26T01:04:59.600Z,8.20
2019-03-26T01:09:00.599Z,8.50
2019-03-26T01:13:01.548Z,8.40
2019-03-26T01:17:02.639Z,8.20
2019-03-26T01:21:03.577Z,7.00
2019-03-26T01:25:04.781Z,7.50
2019-03-26T01:29:05.766Z,7.70
2019-03-26T01:33:06.638Z,7.80
2019-03-26T01:37:07.606Z,7.60
2019-03-26T01:41:08.598Z,7.50
2019-03-26T01:45:09.689Z,7.30
2019-03-26T01:49:10.695Z,7.30
2019-03-26T01:53:11.596Z,7.30
2019-03-26T01:57:12.472Z,7.00
2019-03-26T02:01:13.346Z,6.70
2019-03-26T02:05:14.232Z,6.40
2019-03-26T02:09:15.141Z,7.00
2019-03-26T02:13:16.005Z,7.10
2019-03-26T02:17:16.877Z,7.00
2019-03-26T02:21:17.756Z,7.20
2019-03-26T02:25:18.634Z,7.60
2019-03-26T02:29:19.514Z,7.30
2019-03-26T02:33:20.350Z,7.40
2019-03-26T02:37:21.232Z,7.40
2019-03-26T02:41:22.211Z,7.20
2019-03-26T02:45:23.204Z,7.40
2019-03-26T02:49:24.124Z,7.10
2019-03-26T02:53:24.981Z,7.00
2019-03-26T02:57:25.873Z,7.00
2019-03-26T03:01:26.766Z,7.20
2019-03-26T03:05:35.183Z,7.00
2019-03-26T03:09:30.419Z,7.30
2019-03-26T03:13:31.290Z,7.40
2019-03-26T03:17:32.190Z,7.30
2019-03-26T03:21:33.071Z,7.20
2019-03-26T03:25:33.960Z,7.30
2019-03-26T03:29:34.820Z,7.20
2019-03-26T03:33:35.907Z,6.90
2019-03-26T03:37:36.897Z,6.90
2019-03-26T03:41:37.786Z,6.80
2019-03-26T03:45:39.463Z,7.20
2019-03-26T03:49:40.652Z,7.10
2019-03-26T03:53:41.655Z,6.80
2019-03-26T03:57:43.917Z,5.80
2019-03-26T04:01:44.778Z,6.00
2019-03-26T04:05:45.624Z,6.20
2019-03-26T04:09:46.560Z,6.80
2019-03-26T04:13:47.464Z,6.10
2019-03-26T04:17:48.425Z,5.40
2019-03-26T04:21:49.295Z,5.30
2019-03-26T04:25:50.195Z,6.40
2019-03-26T04:29:51.075Z,6.30
2019-03-26T04:33:51.971Z,6.30
2019-03-26T04:37:52.873Z,7.00
2019-03-26T04:41:53.741Z,7.00
2019-03-26T04:45:54.628Z,7.60
2019-03-26T04:49:55.540Z,7.10
2019-03-26T04:53:56.540Z,7.70
2019-03-26T04:57:57.384Z,7.20
2019-03-26T05:01:58.268Z,8.00
2019-03-26T05:05:59.163Z,7.60
2019-03-26T05:10:00.353Z,7.10
2019-03-26T05:14:01.294Z,7.20
2019-03-26T05:18:02.183Z,7.30
2019-03-26T05:22:03.231Z,7.20
2019-03-26T05:26:04.333Z,7.10
2019-03-26T05:30:09.097Z,7.80
2019-03-26T05:34:09.963Z,8.30
2019-03-26T05:38:10.859Z,8.10
2019-03-26T05:42:11.841Z,8.20
2019-03-26T05:46:12.701Z,7.30
2019-03-26T05:50:13.828Z,8.10
2019-03-26T05:54:14.714Z,8.00
2019-03-26T05:58:15.599Z,8.10
2019-03-26T06:02:18.002Z,8.40
2019-03-26T06:06:19.188Z,7.70
2019-03-26T06:10:20.034Z,7.50
2019-03-26T06:14:20.926Z,7.70
2019-03-26T06:18:21.808Z,8.20
2019-03-26T06:22:22.715Z,7.90
2019-03-26T06:26:23.673Z,8.80
2019-03-26T06:30:24.665Z,8.50
2019-03-26T06:34:25.590Z,7.90
2019-03-26T06:38:27.034Z,8.50
2019-03-26T06:42:28.646Z,8.90
2019-03-26T06:46:30.040Z,8.60
2019-03-26T06:50:31.570Z,8.80
2019-03-26T06:54:35.550Z,8.60
2019-03-26T06:58:36.519Z,8.70
2019-03-26T07:02:37.776Z,8.30
2019-03-26T07:06:38.777Z,9.10
2019-03-26T07:10:39.748Z,8.90
2019-03-26T07:14:40.883Z,8.40
2019-03-26T07:18:41.788Z,8.80
2019-03-26T07:22:42.654Z,8.80
2019-03-26T07:26:43.575Z,9.40
2019-03-26T07:30:44.780Z,8.70
2019-03-26T07:34:45.739Z,10.00
2019-03-26T07:38:46.759Z,9.50
2019-03-26T07:42:47.622Z,9.70
2019-03-26T07:46:48.509Z,9.60
2019-03-26T07:50:49.513Z,9.30
2019-03-26T07:54:50.409Z,9.40
2019-03-26T07:58:51.280Z,9.70
2019-03-26T08:02:54.564Z,9.80
2019-03-26T08:06:55.556Z,9.70
2019-03-26T08:10:56.426Z,9.30
2019-03-26T08:14:57.331Z,8.80
2019-03-26T08:18:59.273Z,8.20
2019-03-26T08:23:02.305Z,8.20
2019-03-26T08:27:03.364Z,9.20
2019-03-26T08:31:04.564Z,9.50
2019-03-26T08:35:05.673Z,8.30
2019-03-26T08:39:06.664Z,8.00
2019-03-26T08:43:07.659Z,7.30
2019-03-26T08:47:08.628Z,7.40
2019-03-26T08:51:09.642Z,8.70
2019-03-26T08:55:10.876Z,8.00
2019-03-26T08:59:11.762Z,9.10
2019-03-26T09:03:12.770Z,7.10
2019-03-26T09:07:13.747Z,7.80
2019-03-26T09:11:14.589Z,8.30
2019-03-26T09:15:15.687Z,8.40
2019-03-26T09:19:16.694Z,8.00
2019-03-26T09:23:17.579Z,8.50
2019-03-26T09:27:18.427Z,8.40
2019-03-26T09:31:19.437Z,9.50
2019-03-26T09:35:20.487Z,9.20
2019-03-26T09:39:21.351Z,8.10
2019-03-26T09:43:22.338Z,8.90
2019-03-26T09:47:23.512Z,8.80
2019-03-26T09:51:24.555Z,8.50
2019-03-26T09:55:25.429Z,8.90
2019-03-26T09:59:26.318Z,8.10
2019-03-26T10:03:27.181Z,8.70
2019-03-26T10:07:28.047Z,9.80
2019-03-26T10:11:29.143Z,9.90
2019-03-26T10:15:30.118Z,8.10
2019-03-26T10:19:31.126Z,7.10
2019-03-26T10:23:32.233Z,9.60
2019-03-26T10:27:35.106Z,10.30
2019-03-26T10:31:36.458Z,10.00
2019-03-26T10:35:37.415Z,11.20
2019-03-26T10:39:38.294Z,11.80
2019-03-26T10:43:39.180Z,11.60
2019-03-26T10:47:40.090Z,10.80
2019-03-26T10:51:41.113Z,11.80
2019-03-26T10:55:42.054Z,11.20
2019-03-26T10:59:42.942Z,11.00
2019-03-26T11:03:43.923Z,11.40
2019-03-26T11:07:44.970Z,11.60
2019-03-26T11:11:45.900Z,11.00
2019-03-26T11:15:46.930Z,11.40
2019-03-26T11:19:47.838Z,11.90
2019-03-26T11:23:48.831Z,9.60
2019-03-26T11:27:49.823Z,10.50
2019-03-26T11:31:50.799Z,11.00
2019-03-26T11:35:51.688Z,12.00
2019-03-26T11:39:52.758Z,10.80
2019-03-26T11:43:53.627Z,11.00
2019-03-26T11:47:54.553Z,11.40
2019-03-26T11:51:55.433Z,10.50
2019-03-26T11:55:56.312Z,12.00
2019-03-26T11:59:57.181Z,13.20
2019-03-26T12:03:58.063Z,12.30
2019-03-26T12:07:58.920Z,13.70
2019-03-26T12:11:59.812Z,12.70
2019-03-26T12:16:00.787Z,13.00
2019-03-26T12:20:02.773Z,13.20
2019-03-26T12:24:03.731Z,11.90
2019-03-26T12:28:04.649Z,12.50
2019-03-26T12:32:05.788Z,11.30
2019-03-26T12:36:06.788Z,11.70
2019-03-26T12:40:07.954Z,11.00
2019-03-26T12:44:08.832Z,11.60
2019-03-26T12:48:09.712Z,12.00
2019-03-26T12:52:10.715Z,12.50
2019-03-26T12:56:11.593Z,12.40
2019-03-26T13:00:12.865Z,12.70
2019-03-26T13:04:16.758Z,13.00
2019-03-26T13:08:16.666Z,13.10
2019-03-26T13:12:17.555Z,13.00
2019-03-26T13:16:18.425Z,10.70
2019-03-26T13:20:19.322Z,10.70
2019-03-26T13:24:20.187Z,12.40
2019-03-26T13:28:21.147Z,12.50
2019-03-26T13:32:22.023Z,13.10
2019-03-26T13:36:23.021Z,12.50
2019-03-26T13:40:27.640Z,13.30
2019-03-26T13:44:26.910Z,12.20
2019-03-26T13:48:28.035Z,13.00
2019-03-26T13:52:29.138Z,12.60
2019-03-26T13:56:30.140Z,12.50
2019-03-26T14:00:33.230Z,13.50
2019-03-26T14:04:34.115Z,13.10
2019-03-26T14:08:35.121Z,12.90
2019-03-26T14:12:36.766Z,13.50
2019-03-26T14:16:37.875Z,12.10
2019-03-26T14:20:38.918Z,12.20
2019-03-26T14:24:39.796Z,12.20
2019-03-26T14:28:41.257Z,12.80
2019-03-26T14:32:42.140Z,12.30
2019-03-26T14:36:43.470Z,12.60
2019-03-26T14:40:54.516Z,12.60
2019-03-26T14:44:50.008Z,12.30
2019-03-26T14:48:50.581Z,11.80
2019-03-26T14:52:51.529Z,12.80
2019-03-26T14:56:52.442Z,11.90
2019-03-26T15:01:13.377Z,12.00
2019-03-26T15:05:14.461Z,12.40
2019-03-26T15:09:15.452Z,12.80
2019-03-26T15:13:16.339Z,12.20
2019-03-26T15:17:17.327Z,12.30
2019-03-26T15:21:19.837Z,12.60
2019-03-26T15:25:20.913Z,11.30
2019-03-26T15:29:21.953Z,11.70
2019-03-26T15:33:22.836Z,11.60
2019-03-26T15:37:23.714Z,12.50
2019-03-26T15:41:24.732Z,12.00
2019-03-26T15:45:25.963Z,12.10
2019-03-26T15:49:26.992Z,12.40
2019-03-26T15:53:30.265Z,12.80
2019-03-26T15:57:31.300Z,12.70
2019-03-26T16:01:33.487Z,12.70
2019-03-26T16:05:34.398Z,12.30
2019-03-26T16:09:38.611Z,11.60
2019-03-26T16:13:39.604Z,11.10
2019-03-26T16:17:40.532Z,12.20
2019-03-26T16:21:41.639Z,12.10
2019-03-26T16:25:42.823Z,12.10
2019-03-26T16:29:43.896Z,11.70
2019-03-26T16:33:44.947Z,11.30
2019-03-26T16:37:45.979Z,11.50
2019-03-26T16:41:49.267Z,12.00
2019-03-26T16:45:49.756Z,11.80
2019-03-26T16:49:50.644Z,10.80
2019-03-26T16:53:51.505Z,11.10
2019-03-26T16:57:52.406Z,11.20
2019-03-26T17:01:53.760Z,11.60
2019-03-26T17:05:54.675Z,10.80
2019-03-26T17:09:55.565Z,11.20
2019-03-26T17:13:56.563Z,11.70
2019-03-26T17:17:57.754Z,10.90
2019-03-26T17:21:58.940Z,11.50
2019-03-26T17:25:59.899Z,11.20
2019-03-26T17:30:00.791Z,11.60
2019-03-26T17:34:01.657Z,11.50
2019-03-26T17:38:02.747Z,10.90
2019-03-26T17:42:16.537Z,12.10
2019-03-26T17:46:06.844Z,11.80
2019-03-26T17:50:09.256Z,11.30
2019-03-26T17:54:10.381Z,11.30
2019-03-26T17:58:11.291Z,11.10
2019-03-26T18:02:12.305Z,11.90
2019-03-26T18:06:13.413Z,10.60
2019-03-26T18:10:14.563Z,11.30
2019-03-26T18:14:15.462Z,11.30
2019-03-26T18:18:16.496Z,11.30
2019-03-26T18:22:17.514Z,11.50
2019-03-26T18:26:18.553Z,12.20
2019-03-26T18:30:19.595Z,11.80
2019-03-26T18:34:20.481Z,11.80
2019-03-26T18:38:21.415Z,12.00
2019-03-26T18:42:22.409Z,11.30
2019-03-26T18:46:23.814Z,11.50
2019-03-26T18:50:24.840Z,10.80
2019-03-26T18:54:25.790Z,11.10
2019-03-26T18:58:26.763Z,11.10
2019-03-26T19:02:27.762Z,11.40
2019-03-26T19:06:28.738Z,10.90
2019-03-26T19:10:31.674Z,10.70
2019-03-26T19:14:32.544Z,9.90
2019-03-26T19:18:33.480Z,10.20
2019-03-26T19:22:34.368Z,10.40
2019-03-26T19:26:35.243Z,10.70
2019-03-26T19:30:36.238Z,9.40
2019-03-26T19:34:37.268Z,9.30
2019-03-26T19:38:38.249Z,10.30
2019-03-26T19:42:39.153Z,9.60
2019-03-26T19:46:40.155Z,9.90
2019-03-26T19:50:41.098Z,10.20
2019-03-26T19:54:42.030Z,9.90
2019-03-26T19:58:42.989Z,10.60
2019-03-26T20:02:44.086Z,10.20
2019-03-26T20:06:45.207Z,10.20
2019-03-26T20:10:46.094Z,9.10
2019-03-26T20:14:47.147Z,9.00
2019-03-26T20:18:48.098Z,10.50
2019-03-26T20:22:48.994Z,10.30
2019-03-26T20:26:49.888Z,9.90
2019-03-26T20:30:50.907Z,10.80
2019-03-26T20:34:52.008Z,10.90
2019-03-26T20:38:52.981Z,10.00
2019-03-26T20:42:54.486Z,10.00
2019-03-26T20:46:55.364Z,10.30
2019-03-26T20:50:57.357Z,10.00
2019-03-26T20:54:58.924Z,10.20
2019-03-26T20:59:00.447Z,10.40
2019-03-26T21:03:01.454Z,9.90
2019-03-26T21:07:02.630Z,10.70
2019-03-26T21:11:03.619Z,10.60
2019-03-26T21:15:06.778Z,10.20
2019-03-26T21:19:07.698Z,10.60
2019-03-26T21:23:08.593Z,9.90
2019-03-26T21:27:09.593Z,9.40
2019-03-26T21:31:10.657Z,9.50
2019-03-26T21:35:13.558Z,9.70
2019-03-26T21:39:14.763Z,9.20
2019-03-26T21:43:15.778Z,10.10
2019-03-26T21:47:16.981Z,9.70
2019-03-26T21:51:17.913Z,9.50
2019-03-26T21:55:19.290Z,9.40
2019-03-26T21:59:20.298Z,9.30
2019-03-26T22:03:21.268Z,9.40
2019-03-26T22:07:22.214Z,9.30
2019-03-26T22:11:23.382Z,9.90
2019-03-26T22:15:24.474Z,9.50
2019-03-26T22:19:28.892Z,9.90
2019-03-26T22:23:28.615Z,9.60
2019-03-26T22:27:29.895Z,9.40
2019-03-26T22:31:31.556Z,9.70
2019-03-26T22:35:32.552Z,9.40
2019-03-26T22:39:33.523Z,9.50
2019-03-26T22:43:34.402Z,9.50
2019-03-26T22:47:38.173Z,9.60
2019-03-26T22:51:39.056Z,9.60
2019-03-26T22:55:39.981Z,9.80
2019-03-26T22:59:40.988Z,10.30
2019-03-26T23:03:43.267Z,10.20
2019-03-26T23:07:44.269Z,10.50
2019-03-26T23:11:45.352Z,10.70
2019-03-26T23:15:46.567Z,11.10
2019-03-26T23:19:48.994Z,11.40
2019-03-26T23:23:50.038Z,10.60
2019-03-26T23:27:50.888Z,10.70
2019-03-26T23:31:51.858Z,11.30
2019-03-26T23:35:52.836Z,11.50
2019-03-26T23:39:53.701Z,11.00
2019-03-26T23:43:54.622Z,11.20
2019-03-26T23:47:55.550Z,10.80
2019-03-26T23:51:56.673Z,10.00
2019-03-26T23:55:57.545Z,9.60
2019-03-26T23:59:58.412Z,10.00
